Tuesday, January 22, 2019, 9:22 PM GMT
Back to Local

CYZX, Greenwood, N. S.

Location: , , Canada Lat: 44.983
Local Time: 9:22 PM GMT (21:22 GMT) Lon: -64.917
Time Zone: GMT Elev: 91 ft

Show me the last for .
Show Coded

Time T Td Feel RH Dir Speed Gust Alt SLP Vis Weather Sky Remarks
2019-01-22 21:00 18 10 4 72 300° 14 - 30.11 30.12 15 BKN030 None
2019-01-22 20:00 16 9 -5 72 310° 17 31 30.09 30.10 15 DRSN BKN030 None
2019-01-22 19:00 16 9 -5 72 310° 17 31 30.05 30.06 15 DRSN BKN027 None
2019-01-22 18:00 14 9 -7 78 300° 24 30 30.01 30.02 15 DRSN BKN027 None
2019-01-22 17:18 12 9 -10 85 310° 17 32 30.00 30.00 12 DRSN BKN025 None
2019-01-22 17:00 12 9 -9 85 300° 16 29 29.99 30.00 12 DRSN BKN023 None
2019-01-22 16:00 10 7 -12 84 310° 20 30 29.97 29.98 10 DRSN BKN023 None
2019-01-22 15:00 10 7 -13 84 310° 21 35 29.96 29.96 12 DRSN BKN023 None
2019-01-22 14:50 10 7 -11 84 300° 20 29 29.95 29.96 12 DRSN BKN023 None
2019-01-22 14:00 9 5 -14 84 310° 22 30 29.92 29.93 10 DRSN BKN025 None
2019-01-22 13:40 9 5 -15 84 310° 24 32 29.91 29.92 6 BLSN BKN025 None
2019-01-22 13:00 10 7 -12 84 310° 23 32 29.89 29.89 6 -SHSN BLSN OVC025 None
2019-01-22 12:00 10 5 -11 78 310° 20 29 29.86 29.86 6 -SHSN BLSN FEW015 OVC026 None
2019-01-22 11:00 12 7 -6 78 320° 14 21 29.82 29.82 4 -SHSN BLSN SCT015 OVC030 None
2019-01-22 10:00 12 7 -3 78 310° 13 - 29.77 29.78 4 -SHSN SCT013 OVC026 None
2019-01-22 09:00 12 9 -4 85 310° 15 - 29.74 29.75 4 -SHSN SCT012 OVC028 None
2019-01-22 08:00 12 9 -5 85 300° 12 17 29.70 29.71 4 -SHSN SCT011 OVC029 None
2019-01-22 07:00 14 9 1 78 300° 10 - 29.68 29.69 4 -SHSN SCT011 OVC029 None
2019-01-22 06:38 14 9 3 78 310° 8 - 29.67 29.68 4 -SHSN SCT011 OVC029 None
2019-01-22 06:00 14 10 -3 85 290° 10 17 29.65 29.66 2 -SHSN BKN009 BKN028 None
2019-01-22 05:28 14 9 1 78 280° 10 - 29.64 29.65 2 -SHSN OVC008 None
2019-01-22 05:17 14 9 2 78 240° 9 - 29.64 29.64 4 -SHSN OVC008 None
2019-01-22 05:00 14 9 4 78 240° 7 - 29.63 29.64 2 -SHSN OVC011 None
2019-01-22 04:00 16 12 4 85 250° 9 - 29.62 29.63 4 -SHSN SCT014 OVC026 None
2019-01-22 03:00 18 14 5 85 250° 12 - 29.60 29.60 4 -SHSN SCT012 OVC031 None
2019-01-22 02:00 18 14 7 85 280° 8 - 29.57 29.57 4 -SHSN SCT012 OVC031 None
2019-01-22 01:25 18 14 6 85 270° 9 - 29.56 29.57 4 -SHSN SCT012 OVC031 None
2019-01-22 01:00 18 14 6 85 280° 9 - 29.56 29.56 4 -SHSN BKN009 OVC011 None
2019-01-22 00:21 19 16 8 85 260° 10 - 29.56 29.57 1 -SHSN BKN009 OVC011 None
2019-01-22 00:00 19 16 9 85 240° 9 - 29.55 29.56 4 -SHSN SCT011 OVC026 None
2019-01-21 23:00 19 16 8 85 230° 10 - 29.56 29.56 4 -SHSN FEW018 OVC045 None
2019-01-21 22:36 19 16 9 85 230° 9 - 29.57 29.57 6 -SHSN SCT018 OVC035 None
2019-01-21 22:11 19 18 9 92 240° 8 - 29.56 29.56 5 -SHSN BKN018 OVC045 None
2019-01-21 22:00 21 18 13 85 240° 7 - 29.55 29.56 2 -SHSN OVC018 None

Support USWX by starting your Amazon purchase here.